Time;durP1;ratioP1;P1;durP2;ratioP2;P2;SDS_P1;SDS_P2;PMS_P1;PMS_P2;Temp;Humidity;BMP_temperature;BMP_pressure;BME280_temperature;BME280_humidity;BME280_pressure;Samples;Min_cycle;Max_cycle;Signal;HPM_P1;HPM_P2
2023/12/23 00:01:57;;;;;;;9.57;2.53;;;7.40;99.90;;;;;;488296;243;28363;-73
2023/12/23 00:03:58;;;;;;;7.57;2.53;;;7.40;99.90;;;;;;488199;243;28346;-75
2023/12/23 00:05:58;;;;;;;6.23;2.57;;;7.50;99.90;;;;;;488245;243;28392;-71
2023/12/23 00:07:59;;;;;;;6.97;2.70;;;7.50;99.90;;;;;;488322;243;28593;-72
2023/12/23 00:10:00;;;;;;;7.63;3.00;;;7.50;99.90;;;;;;488304;243;27981;-73
2023/12/23 00:12:02;;;;;;;12.03;2.60;;;7.50;99.90;;;;;;488327;241;27468;-72
2023/12/23 00:14:03;;;;;;;10.60;3.57;;;7.50;99.90;;;;;;488282;243;27961;-73
2023/12/23 00:16:04;;;;;;;17.93;3.17;;;7.50;99.90;;;;;;488293;243;27946;-75
2023/12/23 00:18:05;;;;;;;8.97;3.03;;;7.50;99.90;;;;;;488289;243;27884;-73
2023/12/23 00:20:07;;;;;;;6.37;2.43;;;7.40;99.90;;;;;;488259;243;28034;-73
2023/12/23 00:22:08;;;;;;;8.87;2.87;;;7.50;99.90;;;;;;488315;243;27868;-72
2023/12/23 00:24:09;;;;;;;10.43;2.83;;;7.50;99.90;;;;;;488182;243;27576;-73
2023/12/23 00:26:10;;;;;;;8.13;3.43;;;7.40;99.90;;;;;;488296;243;28630;-73
2023/12/23 00:28:12;;;;;;;11.10;2.83;;;7.40;99.90;;;;;;488260;241;27993;-73
2023/12/23 00:30:15;;;;;;;8.87;3.10;;;7.50;99.90;;;;;;488323;243;27660;-74
2023/12/23 00:32:14;;;;;;;8.73;2.27;;;7.40;99.90;;;;;;488222;243;28317;-73
2023/12/23 00:34:15;;;;;;;12.83;3.40;;;7.40;99.90;;;;;;488279;243;28491;-73
2023/12/23 00:36:17;;;;;;;5.00;2.50;;;7.40;99.90;;;;;;488289;243;28294;-73
2023/12/23 00:38:18;;;;;;;9.23;2.70;;;7.50;99.90;;;;;;488323;243;28384;-73
2023/12/23 00:40:19;;;;;;;8.70;3.03;;;7.40;99.90;;;;;;488328;243;28387;-75
2023/12/23 00:42:20;;;;;;;9.20;3.27;;;7.40;99.90;;;;;;488289;243;27800;-74
2023/12/23 00:44:22;;;;;;;7.23;2.87;;;7.40;99.90;;;;;;488235;243;27615;-73
2023/12/23 00:46:23;;;;;;;11.60;3.20;;;7.40;99.90;;;;;;488287;243;28022;-72
2023/12/23 00:48:24;;;;;;;10.67;3.23;;;7.40;99.90;;;;;;488326;243;27577;-73
2023/12/23 00:50:25;;;;;;;12.13;2.90;;;7.40;99.90;;;;;;488313;243;27907;-74
2023/12/23 00:52:28;;;;;;;9.53;3.17;;;7.40;99.90;;;;;;488304;243;27771;-73
2023/12/23 00:54:28;;;;;;;6.67;3.07;;;7.30;99.90;;;;;;488157;243;27912;-73
2023/12/23 00:56:29;;;;;;;13.27;2.80;;;7.30;99.90;;;;;;488339;243;28329;-77
2023/12/23 00:58:30;;;;;;;15.93;3.33;;;7.30;99.90;;;;;;488302;243;27891;-73
2023/12/23 01:00:32;;;;;;;7.07;3.23;;;7.30;99.90;;;;;;488321;243;28005;-73
2023/12/23 01:02:33;;;;;;;15.10;3.63;;;7.30;99.90;;;;;;488319;243;27860;-73
2023/12/23 01:04:34;;;;;;;9.33;3.20;;;7.40;99.90;;;;;;488260;243;28288;-72
2023/12/23 01:06:35;;;;;;;6.37;2.57;;;7.40;99.90;;;;;;488341;243;28349;-75
2023/12/23 01:08:37;;;;;;;8.73;2.80;;;7.40;99.90;;;;;;488311;243;28183;-72
2023/12/23 01:10:38;;;;;;;13.33;3.17;;;7.40;99.90;;;;;;488227;243;28371;-73
2023/12/23 01:12:39;;;;;;;8.00;2.70;;;7.40;99.90;;;;;;488281;243;28043;-72
2023/12/23 01:14:40;;;;;;;12.70;2.90;;;7.40;99.90;;;;;;488283;243;27503;-73
2023/12/23 01:16:42;;;;;;;9.07;3.20;;;7.40;99.90;;;;;;488309;243;27925;-73
2023/12/23 01:18:43;;;;;;;6.70;2.70;;;7.40;99.90;;;;;;488294;243;27839;-73
2023/12/23 01:20:44;;;;;;;6.23;2.30;;;7.40;99.90;;;;;;488291;243;27875;-73
2023/12/23 01:22:45;;;;;;;8.67;2.50;;;7.40;99.90;;;;;;488263;243;27770;-72
2023/12/23 01:24:47;;;;;;;4.70;2.70;;;7.40;99.90;;;;;;488148;243;27864;-73
2023/12/23 01:26:48;;;;;;;12.17;2.60;;;7.40;99.90;;;;;;488345;243;27455;-73
2023/12/23 01:28:49;;;;;;;7.40;2.90;;;7.30;99.90;;;;;;488305;243;27847;-72
2023/12/23 01:30:51;;;;;;;5.40;2.47;;;7.30;99.90;;;;;;488253;243;27535;-73
2023/12/23 01:32:52;;;;;;;6.17;2.73;;;7.30;99.90;;;;;;488246;243;28480;-76
2023/12/23 01:34:53;;;;;;;2.37;2.08;;;7.30;99.90;;;;;;488305;243;27859;-73
2023/12/23 01:36:54;;;;;;;4.60;2.90;;;7.30;99.90;;;;;;488285;243;28090;-73
2023/12/23 01:38:55;;;;;;;5.90;2.93;;;7.20;99.90;;;;;;488313;243;28295;-72
2023/12/23 01:40:57;;;;;;;11.13;3.23;;;7.20;99.90;;;;;;488284;243;28489;-73
2023/12/23 01:42:58;;;;;;;8.57;2.77;;;7.20;99.90;;;;;;488256;243;27870;-75
2023/12/23 01:44:59;;;;;;;12.03;2.67;;;7.20;99.90;;;;;;488272;243;27909;-73
2023/12/23 01:47:00;;;;;;;15.00;2.83;;;7.20;99.90;;;;;;488240;243;28016;-73
2023/12/23 01:49:02;;;;;;;12.13;3.00;;;7.20;99.90;;;;;;488277;243;28805;-71
2023/12/23 01:51:03;;;;;;;7.90;2.90;;;7.20;99.90;;;;;;488315;243;27860;-71
2023/12/23 01:53:04;;;;;;;9.10;2.60;;;7.20;99.90;;;;;;488282;243;27985;-73
2023/12/23 01:55:05;;;;;;;7.10;2.77;;;7.20;99.90;;;;;;488295;243;27985;-73
2023/12/23 01:57:07;;;;;;;7.30;2.53;;;7.20;99.90;;;;;;488273;243;27868;-71
2023/12/23 01:59:08;;;;;;;9.83;2.90;;;7.20;99.90;;;;;;488320;243;27424;-70
2023/12/23 02:01:09;;;;;;;10.00;2.60;;;7.20;99.90;;;;;;488315;243;27435;-71
2023/12/23 02:03:10;;;;;;;12.63;3.10;;;7.30;99.90;;;;;;488275;243;27893;-74
2023/12/23 02:05:12;;;;;;;10.00;2.87;;;7.30;99.90;;;;;;488313;243;28306;-73
2023/12/23 02:07:13;;;;;;;12.97;3.63;;;7.30;99.90;;;;;;488282;243;28474;-74
2023/12/23 02:09:14;;;;;;;7.40;3.17;;;7.30;99.90;;;;;;488315;243;28389;-72
2023/12/23 02:11:15;;;;;;;5.40;2.70;;;7.30;99.90;;;;;;488286;243;28791;-71
2023/12/23 02:13:17;;;;;;;10.60;3.73;;;7.30;99.90;;;;;;488271;243;28564;-73
2023/12/23 02:15:18;;;;;;;4.75;2.90;;;7.20;99.90;;;;;;488274;243;27987;-73
2023/12/23 02:17:19;;;;;;;12.63;4.13;;;7.20;99.90;;;;;;488301;243;27435;-73
2023/12/23 02:19:20;;;;;;;9.40;2.73;;;7.30;99.90;;;;;;488309;243;28027;-74
2023/12/23 02:21:22;;;;;;;9.73;2.50;;;7.20;99.90;;;;;;488288;243;27948;-73
2023/12/23 02:23:23;;;;;;;11.23;2.97;;;7.20;99.90;;;;;;488229;243;28346;-73
2023/12/23 02:25:24;;;;;;;10.73;3.17;;;7.20;99.90;;;;;;488279;243;29113;-72
2023/12/23 02:27:27;;;;;;;17.03;3.40;;;7.30;99.90;;;;;;488318;243;28255;-73
2023/12/23 02:29:27;;;;;;;7.73;2.87;;;7.20;99.90;;;;;;488215;243;28429;-73
2023/12/23 02:31:28;;;;;;;11.80;3.13;;;7.20;99.90;;;;;;488276;243;28324;-73
2023/12/23 02:33:29;;;;;;;6.70;3.47;;;7.20;99.90;;;;;;488284;243;27962;-73
2023/12/23 02:35:30;;;;;;;10.43;3.40;;;7.20;99.90;;;;;;488342;243;28444;-74
2023/12/23 02:37:32;;;;;;;11.00;2.97;;;7.20;99.90;;;;;;488311;243;28803;-73
2023/12/23 02:39:33;;;;;;;9.37;2.63;;;7.30;99.90;;;;;;488333;243;27970;-73
2023/12/23 02:41:34;;;;;;;9.33;2.60;;;7.30;99.90;;;;;;488301;243;27926;-73
2023/12/23 02:43:35;;;;;;;8.57;3.30;;;7.30;99.90;;;;;;488265;243;28021;-73
2023/12/23 02:45:37;;;;;;;8.60;3.20;;;7.20;99.90;;;;;;488333;243;28042;-75
2023/12/23 02:47:38;;;;;;;8.10;2.67;;;7.30;99.90;;;;;;488298;243;27697;-73
2023/12/23 02:49:39;;;;;;;12.67;4.40;;;7.30;99.90;;;;;;488291;243;27896;-74
2023/12/23 02:51:40;;;;;;;15.13;3.70;;;7.20;99.90;;;;;;488271;243;28059;-73
2023/12/23 02:53:42;;;;;;;12.63;3.37;;;7.20;99.90;;;;;;488279;243;27545;-73
2023/12/23 02:55:43;;;;;;;9.73;3.20;;;7.20;99.90;;;;;;488362;243;28010;-73
2023/12/23 02:57:44;;;;;;;10.80;3.08;;;7.20;99.90;;;;;;488354;243;28218;-73
2023/12/23 02:59:45;;;;;;;7.03;2.87;;;7.20;99.90;;;;;;488357;243;27495;-71
2023/12/23 03:01:47;;;;;;;8.63;2.70;;;7.10;99.90;;;;;;488351;241;28736;-73
2023/12/23 03:03:48;;;;;;;10.88;3.00;;;7.10;99.90;;;;;;488352;243;27719;-71
2023/12/23 03:05:49;;;;;;;10.80;3.40;;;7.10;99.90;;;;;;488380;243;27521;-72
2023/12/23 03:07:50;;;;;;;8.57;3.20;;;7.10;99.90;;;;;;488336;243;27411;-73
2023/12/23 03:09:52;;;;;;;9.40;2.97;;;7.20;99.90;;;;;;488324;243;27964;-73
2023/12/23 03:11:53;;;;;;;6.40;2.70;;;7.20;99.90;;;;;;488355;243;27843;-74
2023/12/23 03:13:54;;;;;;;10.40;2.77;;;7.10;99.90;;;;;;488323;243;28560;-73
2023/12/23 03:15:55;;;;;;;15.97;3.60;;;7.20;99.90;;;;;;488347;243;28438;-71
2023/12/23 03:17:57;;;;;;;7.90;2.60;;;7.20;99.90;;;;;;488338;243;29289;-73
2023/12/23 03:19:58;;;;;;;11.03;2.87;;;7.20;99.90;;;;;;488338;243;28025;-73
2023/12/23 03:21:59;;;;;;;8.10;2.50;;;7.20;99.90;;;;;;488402;243;27848;-75
2023/12/23 03:24:00;;;;;;;6.97;2.60;;;7.20;99.90;;;;;;488327;243;28015;-72
2023/12/23 03:26:02;;;;;;;10.17;2.60;;;7.20;99.90;;;;;;488334;243;27982;-71
2023/12/23 03:28:03;;;;;;;9.40;3.60;;;7.10;99.90;;;;;;488323;243;28714;-72
2023/12/23 03:30:04;;;;;;;9.37;3.30;;;7.10;99.90;;;;;;488365;243;27614;-73
2023/12/23 03:32:07;;;;;;;16.48;3.00;;;7.10;99.90;;;;;;488352;243;28174;-74
2023/12/23 03:34:07;;;;;;;9.30;3.23;;;7.10;99.90;;;;;;488276;243;27456;-71
2023/12/23 03:36:08;;;;;;;11.93;2.90;;;7.10;99.90;;;;;;488313;243;28430;-71
2023/12/23 03:38:09;;;;;;;11.47;3.10;;;7.10;99.90;;;;;;488320;243;29410;-73
2023/12/23 03:40:10;;;;;;;7.00;2.53;;;7.10;99.90;;;;;;488349;243;29328;-73
2023/12/23 03:42:12;;;;;;;9.63;2.83;;;7.10;99.90;;;;;;488334;243;29257;-72
2023/12/23 03:44:13;;;;;;;9.70;2.87;;;7.10;99.90;;;;;;488303;243;27955;-71
2023/12/23 03:46:14;;;;;;;6.70;2.30;;;7.10;99.90;;;;;;488325;243;28826;-73
2023/12/23 03:48:15;;;;;;;6.03;3.07;;;7.10;99.90;;;;;;488374;243;27917;-74
2023/12/23 03:50:17;;;;;;;8.00;2.67;;;7.10;99.90;;;;;;488362;243;28403;-73
2023/12/23 03:52:18;;;;;;;17.93;3.20;;;7.10;99.90;;;;;;488328;243;27952;-73
2023/12/23 03:54:19;;;;;;;11.07;3.07;;;7.10;99.90;;;;;;488277;243;27865;-73
2023/12/23 03:56:21;;;;;;;7.03;3.13;;;7.10;99.90;;;;;;488334;243;28160;-72
2023/12/23 03:58:22;;;;;;;8.67;3.00;;;7.10;99.90;;;;;;488352;243;28041;-71
2023/12/23 04:00:23;;;;;;;7.80;2.60;;;7.10;99.90;;;;;;488336;243;28826;-72
2023/12/23 04:02:24;;;;;;;10.30;3.35;;;7.10;99.90;;;;;;488337;243;27643;-73
2023/12/23 04:04:26;;;;;;;9.57;2.80;;;7.10;99.90;;;;;;488283;243;28736;-73
2023/12/23 04:06:27;;;;;;;5.67;2.50;;;7.10;99.90;;;;;;488340;243;28033;-73
2023/12/23 04:08:28;;;;;;;11.12;3.00;;;7.20;99.90;;;;;;488325;243;28445;-72
2023/12/23 04:10:29;;;;;;;6.10;2.60;;;7.10;99.90;;;;;;488336;243;27459;-71
2023/12/23 04:12:31;;;;;;;10.30;3.47;;;7.10;99.90;;;;;;488280;243;27916;-71
2023/12/23 04:14:34;;;;;;;8.40;2.43;;;7.10;99.90;;;;;;488203;243;27892;-71
2023/12/23 04:16:33;;;;;;;11.60;2.70;;;7.20;99.90;;;;;;488189;243;27720;-71
2023/12/23 04:18:34;;;;;;;11.10;3.20;;;7.20;99.90;;;;;;488291;243;27775;-74
2023/12/23 04:20:36;;;;;;;8.90;3.13;;;7.20;99.90;;;;;;488265;243;28720;-71
2023/12/23 04:22:37;;;;;;;9.40;2.93;;;7.20;99.90;;;;;;488300;243;28742;-71
2023/12/23 04:24:38;;;;;;;8.80;3.00;;;7.20;99.90;;;;;;488262;243;27817;-76
2023/12/23 04:26:39;;;;;;;16.50;2.97;;;7.20;99.90;;;;;;488284;243;28809;-73
2023/12/23 04:28:41;;;;;;;11.60;3.17;;;7.20;99.90;;;;;;488309;243;27899;-73
2023/12/23 04:30:42;;;;;;;5.20;3.03;;;7.20;99.90;;;;;;488278;243;27903;-73
2023/12/23 04:32:43;;;;;;;4.75;3.00;;;7.20;99.90;;;;;;488309;243;28796;-72
2023/12/23 04:34:44;;;;;;;6.10;2.63;;;7.20;99.90;;;;;;488301;243;27483;-73
2023/12/23 04:36:46;;;;;;;9.07;2.97;;;7.20;99.90;;;;;;488295;243;27860;-72
2023/12/23 04:38:47;;;;;;;10.63;3.28;;;7.20;99.90;;;;;;488258;243;27529;-73
2023/12/23 04:40:48;;;;;;;4.77;2.77;;;7.20;99.90;;;;;;488332;243;27436;-75
2023/12/23 04:42:49;;;;;;;7.00;2.97;;;7.20;99.90;;;;;;488314;243;27976;-73
2023/12/23 04:44:51;;;;;;;6.60;3.00;;;7.20;99.90;;;;;;488277;243;28451;-71
2023/12/23 04:46:52;;;;;;;6.13;3.00;;;7.20;99.90;;;;;;488281;243;27985;-70
2023/12/23 04:48:53;;;;;;;6.03;3.30;;;7.20;99.90;;;;;;488287;243;28444;-73
2023/12/23 04:50:54;;;;;;;7.37;2.77;;;7.20;99.90;;;;;;488329;243;28307;-73
2023/12/23 04:52:56;;;;;;;6.73;2.90;;;7.20;99.90;;;;;;488258;243;28081;-70
2023/12/23 04:54:59;;;;;;;9.30;3.20;;;7.20;99.90;;;;;;488188;243;28374;-73
2023/12/23 04:56:58;;;;;;;8.77;3.33;;;7.20;99.90;;;;;;488185;243;28527;-73
2023/12/23 04:59:00;;;;;;;6.30;2.97;;;7.20;99.90;;;;;;488280;243;28107;-73
2023/12/23 05:01:01;;;;;;;8.90;3.17;;;7.20;99.90;;;;;;488318;243;27524;-75
2023/12/23 05:03:02;;;;;;;12.30;2.87;;;7.20;99.90;;;;;;488274;243;28846;-74
2023/12/23 05:05:03;;;;;;;7.73;3.13;;;7.20;99.90;;;;;;488300;243;27971;-73
2023/12/23 05:07:04;;;;;;;12.93;3.22;;;7.20;99.90;;;;;;488288;243;27716;-72
2023/12/23 05:09:06;;;;;;;5.97;2.77;;;7.20;99.90;;;;;;488310;243;27496;-72
2023/12/23 05:11:07;;;;;;;7.03;2.70;;;7.20;99.90;;;;;;488320;243;27919;-74
2023/12/23 05:13:08;;;;;;;10.17;3.47;;;7.20;99.90;;;;;;488267;243;27803;-73
2023/12/23 05:15:09;;;;;;;6.27;3.10;;;7.20;99.90;;;;;;488292;243;27979;-73
2023/12/23 05:17:11;;;;;;;4.93;2.30;;;7.20;99.90;;;;;;488297;243;29500;-73
2023/12/23 05:19:12;;;;;;;12.73;2.83;;;7.20;99.90;;;;;;488282;243;28355;-73
2023/12/23 05:21:13;;;;;;;5.73;2.73;;;7.20;99.90;;;;;;488269;243;29254;-74
2023/12/23 05:23:16;;;;;;;6.20;2.80;;;7.10;99.90;;;;;;488240;243;28710;-72
2023/12/23 05:25:16;;;;;;;9.47;2.90;;;7.20;99.90;;;;;;488191;243;27479;-73
2023/12/23 05:27:17;;;;;;;14.43;3.07;;;7.20;99.90;;;;;;488308;243;27761;-74
2023/12/23 05:29:18;;;;;;;13.57;3.47;;;7.20;99.90;;;;;;488323;243;28301;-73
2023/12/23 05:31:19;;;;;;;10.10;3.00;;;7.20;99.90;;;;;;488292;243;28819;-73
2023/12/23 05:33:24;;;;;;;11.40;2.87;;;7.20;99.90;;;;;;488272;243;28021;-71
2023/12/23 05:35:22;;;;;;;9.33;2.70;;;7.20;99.90;;;;;;488068;243;28842;-73
2023/12/23 05:37:23;;;;;;;10.83;3.47;;;7.20;99.90;;;;;;488279;243;27870;-74
2023/12/23 05:39:24;;;;;;;8.40;3.10;;;7.10;99.90;;;;;;488305;243;28423;-72
2023/12/23 05:41:26;;;;;;;11.87;3.30;;;7.20;99.90;;;;;;488316;243;28492;-73
2023/12/23 05:43:27;;;;;;;8.53;2.67;;;7.20;99.90;;;;;;488250;243;28353;-72
2023/12/23 05:45:28;;;;;;;6.72;2.80;;;7.10;99.90;;;;;;488296;243;28387;-73
2023/12/23 05:47:29;;;;;;;8.10;3.00;;;7.20;99.90;;;;;;488341;243;27475;-74
2023/12/23 05:49:31;;;;;;;10.00;2.60;;;7.10;99.90;;;;;;488340;243;27373;-73
2023/12/23 05:51:32;;;;;;;13.40;2.60;;;7.20;99.90;;;;;;488296;243;27550;-71
2023/12/23 05:53:33;;;;;;;17.97;3.23;;;7.20;99.90;;;;;;488264;243;28563;-73
2023/12/23 05:55:34;;;;;;;6.83;2.53;;;7.20;99.90;;;;;;488339;243;27861;-73
2023/12/23 05:57:36;;;;;;;8.32;2.75;;;7.20;99.90;;;;;;488315;243;28052;-73
2023/12/23 05:59:37;;;;;;;10.50;2.73;;;7.20;99.90;;;;;;488334;243;27459;-73
2023/12/23 06:01:38;;;;;;;7.53;2.50;;;7.20;99.90;;;;;;488329;243;28011;-73
2023/12/23 06:03:39;;;;;;;6.83;2.20;;;7.20;99.90;;;;;;488304;243;29222;-75
2023/12/23 06:05:41;;;;;;;9.23;3.00;;;7.20;99.90;;;;;;488311;243;28423;-73
2023/12/23 06:07:42;;;;;;;7.90;2.57;;;7.20;99.90;;;;;;488219;243;28352;-72
2023/12/23 06:09:43;;;;;;;7.93;3.07;;;7.10;99.90;;;;;;488281;243;28416;-72
2023/12/23 06:11:44;;;;;;;6.30;2.33;;;7.10;99.90;;;;;;488286;243;28705;-72
2023/12/23 06:13:46;;;;;;;9.65;2.80;;;7.20;99.90;;;;;;488290;243;28037;-75
2023/12/23 06:15:47;;;;;;;6.10;2.90;;;7.20;99.90;;;;;;488307;243;27364;-73
2023/12/23 06:17:50;;;;;;;7.87;3.30;;;7.20;99.90;;;;;;488244;243;28869;-73
2023/12/23 06:19:49;;;;;;;12.83;3.17;;;7.20;99.90;;;;;;488124;243;27449;-72
2023/12/23 06:21:51;;;;;;;7.80;2.70;;;7.10;99.90;;;;;;488283;243;28787;-72
2023/12/23 06:23:52;;;;;;;7.40;2.30;;;7.20;99.90;;;;;;488287;243;27900;-74
2023/12/23 06:25:53;;;;;;;15.37;2.77;;;7.10;99.90;;;;;;488296;243;28714;-73
2023/12/23 06:27:54;;;;;;;10.03;2.83;;;7.10;99.90;;;;;;488280;243;29345;-73
2023/12/23 06:29:56;;;;;;;7.33;2.40;;;7.10;99.90;;;;;;488318;243;28410;-73
2023/12/23 06:31:59;;;;;;;6.00;2.60;;;7.20;99.90;;;;;;488319;243;28063;-73
2023/12/23 06:33:58;;;;;;;6.00;2.23;;;7.10;99.90;;;;;;488150;243;28130;-73
2023/12/23 06:35:59;;;;;;;9.00;3.63;;;7.10;99.90;;;;;;488289;243;28779;-73
2023/12/23 06:38:01;;;;;;;5.93;2.60;;;7.10;99.90;;;;;;488262;243;28344;-73
2023/12/23 06:40:02;;;;;;;9.48;3.20;;;7.10;99.90;;;;;;488305;243;27435;-74
2023/12/23 06:42:03;;;;;;;9.57;3.00;;;7.10;99.90;;;;;;488290;243;27372;-73
2023/12/23 06:44:04;;;;;;;4.40;2.47;;;7.10;99.90;;;;;;488207;243;27661;-73
2023/12/23 06:46:06;;;;;;;5.13;2.67;;;7.10;99.90;;;;;;488231;243;28823;-73
2023/12/23 06:48:07;;;;;;;7.80;2.60;;;7.10;99.90;;;;;;488287;243;28742;-73
2023/12/23 06:50:08;;;;;;;9.83;2.80;;;7.10;99.90;;;;;;488310;243;28232;-74
2023/12/23 06:52:09;;;;;;;4.27;2.43;;;7.10;99.90;;;;;;488318;243;28330;-73
2023/12/23 06:54:11;;;;;;;7.37;2.90;;;7.10;99.90;;;;;;488258;243;29053;-73
2023/12/23 06:56:13;;;;;;;7.75;2.65;;;7.10;99.90;;;;;;488317;243;27957;-73
2023/12/23 06:58:13;;;;;;;8.52;2.78;;;7.10;99.90;;;;;;488196;243;27385;-73
2023/12/23 07:00:14;;;;;;;9.00;2.73;;;7.10;99.90;;;;;;488308;243;27424;-72
2023/12/23 07:02:16;;;;;;;5.83;2.73;;;7.10;99.90;;;;;;488286;243;27866;-70
2023/12/23 07:04:17;;;;;;;8.63;2.67;;;7.10;99.90;;;;;;488211;243;27727;-73
2023/12/23 07:06:18;;;;;;;6.33;2.87;;;7.10;99.90;;;;;;488320;243;29192;-75
2023/12/23 07:08:19;;;;;;;4.62;2.15;;;7.10;99.90;;;;;;488315;243;28905;-73
2023/12/23 07:10:21;;;;;;;7.53;2.73;;;7.00;99.90;;;;;;488310;243;27503;-73
2023/12/23 07:12:22;;;;;;;4.00;2.30;;;7.00;99.90;;;;;;488276;243;29126;-72
2023/12/23 07:14:24;;;;;;;9.33;3.00;;;7.00;99.90;;;;;;488232;243;28085;-73
2023/12/23 07:16:24;;;;;;;8.73;2.42;;;7.00;99.90;;;;;;488306;243;28384;-75
2023/12/23 07:18:26;;;;;;;6.30;2.60;;;7.00;99.90;;;;;;488274;243;27839;-72
2023/12/23 07:20:27;;;;;;;7.75;2.72;;;6.90;99.90;;;;;;488251;243;28747;-73
2023/12/23 07:22:28;;;;;;;6.33;2.57;;;6.90;99.90;;;;;;488275;243;27439;-73
2023/12/23 07:24:29;;;;;;;3.67;2.70;;;6.90;99.90;;;;;;488212;243;27862;-70
2023/12/23 07:26:34;;;;;;;4.72;2.78;;;6.90;99.90;;;;;;488260;243;27794;-74
2023/12/23 07:28:32;;;;;;;4.00;2.63;;;6.80;99.90;;;;;;487984;243;27419;-73
2023/12/23 07:30:33;;;;;;;5.23;2.23;;;6.90;99.90;;;;;;488203;243;27420;-71
2023/12/23 07:32:35;;;;;;;5.60;2.37;;;6.80;99.90;;;;;;488208;243;27769;-71
2023/12/23 07:34:36;;;;;;;2.73;2.00;;;6.90;99.90;;;;;;488230;243;27984;-71
2023/12/23 07:36:37;;;;;;;5.20;2.30;;;6.80;99.90;;;;;;488260;243;27896;-71
2023/12/23 07:38:38;;;;;;;3.97;2.40;;;6.80;99.90;;;;;;488254;243;29167;-73
2023/12/23 07:40:40;;;;;;;5.87;2.67;;;6.90;99.90;;;;;;488260;243;29366;-73
2023/12/23 07:42:41;;;;;;;7.50;2.20;;;6.90;99.90;;;;;;488349;243;29397;-72
2023/12/23 07:44:42;;;;;;;3.85;2.50;;;6.80;99.90;;;;;;488280;243;28430;-71
2023/12/23 07:46:43;;;;;;;4.50;2.17;;;6.90;99.90;;;;;;488322;243;27491;-71
2023/12/23 07:48:45;;;;;;;2.63;2.10;;;6.80;99.90;;;;;;488275;243;27390;-70
2023/12/23 07:50:46;;;;;;;8.52;2.80;;;6.80;99.90;;;;;;488309;243;28757;-73
2023/12/23 07:52:47;;;;;;;5.10;2.40;;;6.80;99.90;;;;;;488342;243;27403;-74
2023/12/23 07:54:48;;;;;;;2.23;2.00;;;6.80;99.90;;;;;;488258;243;27967;-73
2023/12/23 07:56:50;;;;;;;4.07;2.03;;;6.80;99.90;;;;;;488318;243;28749;-73
2023/12/23 07:58:51;;;;;;;6.87;2.07;;;6.70;99.90;;;;;;488295;243;29954;-72
2023/12/23 08:00:52;;;;;;;5.20;2.23;;;6.80;99.90;;;;;;488297;243;28106;-73
2023/12/23 08:02:53;;;;;;;4.65;1.95;;;6.80;99.90;;;;;;488264;243;28432;-74
2023/12/23 08:04:55;;;;;;;4.77;1.77;;;6.80;99.90;;;;;;488313;243;27454;-73
2023/12/23 08:06:56;;;;;;;2.00;1.90;;;6.80;99.90;;;;;;488295;243;28726;-73
2023/12/23 08:08:57;;;;;;;3.10;2.20;;;6.80;99.90;;;;;;488327;243;27431;-72
2023/12/23 08:10:58;;;;;;;2.00;1.90;;;6.80;99.90;;;;;;488330;243;27384;-73
2023/12/23 08:13:00;;;;;;;4.10;2.10;;;6.80;99.90;;;;;;488279;243;27417;-71
2023/12/23 08:15:01;;;;;;;3.73;1.80;;;6.80;99.90;;;;;;488330;243;28411;-71
2023/12/23 08:17:02;;;;;;;3.78;1.85;;;6.80;99.90;;;;;;488276;243;28314;-71
2023/12/23 08:19:03;;;;;;;3.37;1.90;;;6.80;99.90;;;;;;488289;243;28038;-74
2023/12/23 08:21:06;;;;;;;3.90;1.65;;;6.80;99.90;;;;;;488346;243;27938;-73
2023/12/23 08:23:06;;;;;;;2.50;1.70;;;6.90;99.90;;;;;;488213;243;27424;-73
2023/12/23 08:25:07;;;;;;;2.47;1.67;;;6.80;99.90;;;;;;488315;243;27379;-70
2023/12/23 08:27:08;;;;;;;2.60;1.70;;;6.80;99.90;;;;;;488293;243;29178;-71
2023/12/23 08:29:10;;;;;;;2.00;1.80;;;6.80;99.90;;;;;;488341;243;27479;-72
2023/12/23 08:31:11;;;;;;;2.60;2.10;;;6.80;99.90;;;;;;488337;243;27407;-70
2023/12/23 08:33:12;;;;;;;1.73;1.63;;;6.80;99.90;;;;;;488280;243;29399;-73
2023/12/23 08:35:15;;;;;;;2.35;1.37;;;6.80;99.90;;;;;;488324;243;28547;-75
2023/12/23 08:37:15;;;;;;;1.60;1.50;;;6.80;99.90;;;;;;488254;243;27807;-74
2023/12/23 08:39:16;;;;;;;1.75;1.40;;;6.80;99.90;;;;;;488340;243;28738;-72
2023/12/23 08:41:17;;;;;;;1.20;1.10;;;6.90;99.90;;;;;;488328;243;27460;-71
2023/12/23 08:43:18;;;;;;;1.30;1.12;;;6.80;99.90;;;;;;488301;243;28454;-73
2023/12/23 08:45:20;;;;;;;2.37;1.15;;;6.80;99.90;;;;;;488364;243;27761;-76
2023/12/23 08:47:21;;;;;;;1.10;1.10;;;6.90;99.90;;;;;;488318;243;27388;-73
2023/12/23 08:49:22;;;;;;;1.27;1.10;;;6.80;99.90;;;;;;488328;243;27959;-73
2023/12/23 08:51:24;;;;;;;1.10;1.10;;;6.80;99.90;;;;;;488334;243;27880;-73
2023/12/23 08:53:25;;;;;;;1.10;1.10;;;6.80;99.90;;;;;;488271;243;28658;-74
2023/12/23 08:55:26;;;;;;;1.60;1.20;;;6.80;99.90;;;;;;488379;243;28814;-72
2023/12/23 08:57:27;;;;;;;1.50;1.07;;;6.80;99.90;;;;;;488330;243;28785;-73
2023/12/23 08:59:28;;;;;;;1.07;1.03;;;6.80;99.90;;;;;;488306;243;27985;-73
2023/12/23 09:01:30;;;;;;;1.10;1.00;;;6.80;99.90;;;;;;488310;243;27924;-71
2023/12/23 09:03:31;;;;;;;1.63;1.10;;;6.90;99.90;;;;;;488280;243;27493;-73
2023/12/23 09:05:32;;;;;;;2.00;1.30;;;6.90;99.90;;;;;;488316;243;28015;-72
2023/12/23 09:07:33;;;;;;;2.67;1.33;;;6.90;99.90;;;;;;488298;243;27372;-71
2023/12/23 09:09:35;;;;;;;1.27;0.90;;;6.90;99.90;;;;;;488282;243;27415;-74
2023/12/23 09:11:36;;;;;;;1.10;1.10;;;6.90;99.90;;;;;;488214;243;27541;-71
2023/12/23 09:13:37;;;;;;;1.10;1.00;;;6.90;99.90;;;;;;488210;243;29256;-71
2023/12/23 09:15:38;;;;;;;1.00;1.00;;;7.00;99.90;;;;;;488280;243;28276;-73
2023/12/23 09:17:40;;;;;;;1.37;1.10;;;7.00;99.90;;;;;;488275;243;27935;-71
2023/12/23 09:19:41;;;;;;;0.98;0.95;;;6.90;99.90;;;;;;488294;243;28457;-72
2023/12/23 09:21:42;;;;;;;0.93;0.80;;;7.00;99.90;;;;;;488338;243;27516;-73
2023/12/23 09:23:43;;;;;;;1.17;1.10;;;7.00;99.90;;;;;;488216;243;27708;-71
2023/12/23 09:25:45;;;;;;;1.00;1.00;;;7.00;99.90;;;;;;488282;243;27412;-71
2023/12/23 09:27:46;;;;;;;0.90;0.90;;;7.10;99.90;;;;;;488287;243;27908;-72
2023/12/23 09:29:47;;;;;;;0.90;0.90;;;7.00;99.90;;;;;;488345;243;27569;-72
2023/12/23 09:31:48;;;;;;;1.60;1.00;;;7.00;99.90;;;;;;488286;243;28778;-73
2023/12/23 09:33:50;;;;;;;1.20;1.20;;;7.00;99.90;;;;;;488233;243;27840;-74
2023/12/23 09:35:51;;;;;;;1.20;1.10;;;7.00;99.90;;;;;;488279;243;27412;-73
2023/12/23 09:37:52;;;;;;;0.93;0.87;;;7.00;99.90;;;;;;488296;243;28569;-75
2023/12/23 09:39:54;;;;;;;2.15;1.05;;;7.00;99.90;;;;;;488305;243;28374;-72
2023/12/23 09:41:55;;;;;;;4.07;1.50;;;7.00;99.90;;;;;;488297;243;27989;-74
2023/12/23 09:43:56;;;;;;;1.03;1.03;;;7.00;99.90;;;;;;488204;243;28305;-73
2023/12/23 09:45:57;;;;;;;1.10;1.10;;;7.00;99.90;;;;;;488288;243;27821;-74
2023/12/23 09:47:58;;;;;;;0.90;0.90;;;7.00;99.90;;;;;;488333;243;27412;-75
2023/12/23 09:50:00;;;;;;;1.03;1.03;;;7.00;99.90;;;;;;488323;243;27376;-73
2023/12/23 09:52:01;;;;;;;2.50;1.10;;;7.00;99.90;;;;;;488310;243;28102;-73
2023/12/23 09:54:02;;;;;;;1.73;1.20;;;7.00;99.90;;;;;;488232;243;28003;-72
2023/12/23 09:56:03;;;;;;;4.20;1.20;;;7.00;99.90;;;;;;488320;243;27702;-71
2023/12/23 09:58:05;;;;;;;0.90;0.90;;;7.00;99.90;;;;;;488314;243;28455;-73
2023/12/23 10:00:06;;;;;;;0.97;0.97;;;7.10;99.90;;;;;;488285;243;28605;-73
2023/12/23 10:02:07;;;;;;;0.90;0.90;;;7.00;99.90;;;;;;488245;243;28237;-73
2023/12/23 10:04:08;;;;;;;2.20;1.33;;;7.10;99.90;;;;;;488224;243;27954;-73
2023/12/23 10:06:10;;;;;;;0.90;0.90;;;7.10;99.90;;;;;;488328;243;28379;-72
2023/12/23 10:08:11;;;;;;;1.10;1.10;;;7.10;99.90;;;;;;488305;243;29189;-73
2023/12/23 10:10:12;;;;;;;1.00;1.00;;;7.10;99.90;;;;;;488290;243;28447;-72
2023/12/23 10:12:13;;;;;;;2.30;1.30;;;7.10;99.90;;;;;;488256;243;28413;-73
2023/12/23 10:14:15;;;;;;;1.00;1.00;;;7.00;99.90;;;;;;488260;243;28729;-75
2023/12/23 10:16:16;;;;;;;1.10;1.10;;;7.10;99.90;;;;;;488316;243;28707;-73
2023/12/23 10:18:17;;;;;;;1.00;1.00;;;7.10;99.90;;;;;;488299;243;28580;-72
2023/12/23 10:20:18;;;;;;;1.30;1.20;;;7.10;99.90;;;;;;488282;242;27463;-72
2023/12/23 10:22:20;;;;;;;1.13;1.07;;;7.10;99.90;;;;;;488285;243;27773;-73
2023/12/23 10:24:21;;;;;;;1.40;0.90;;;7.10;99.90;;;;;;488276;243;28845;-74
2023/12/23 10:26:22;;;;;;;1.60;1.00;;;7.10;99.90;;;;;;488297;243;27672;-72
2023/12/23 10:28:23;;;;;;;1.63;1.10;;;7.10;99.90;;;;;;488282;243;27855;-73
2023/12/23 10:30:25;;;;;;;1.03;1.00;;;7.10;99.90;;;;;;488243;243;27857;-72
2023/12/23 10:32:27;;;;;;;1.62;1.10;;;7.10;99.90;;;;;;488308;243;27504;-73
2023/12/23 10:34:27;;;;;;;1.20;1.13;;;7.10;99.90;;;;;;488192;243;27960;-74
2023/12/23 10:36:28;;;;;;;1.73;1.20;;;7.10;99.90;;;;;;488308;243;29208;-72
2023/12/23 10:38:30;;;;;;;1.30;1.30;;;7.10;99.90;;;;;;488273;243;27420;-70